sensor_id;sensor_type;location;lat;lon;timestamp;temperature;humidity
39951;DHT22;25629;51.444;-2.606;2023-02-13T00:00:15;9.00;15.40
39951;DHT22;25629;51.444;-2.606;2023-02-13T00:02:41;9.00;15.20
39951;DHT22;25629;51.444;-2.606;2023-02-13T00:05:07;9.00;19.40
39951;DHT22;25629;51.444;-2.606;2023-02-13T00:07:32;9.00;15.30
39951;DHT22;25629;51.444;-2.606;2023-02-13T00:09:58;9.00;1.00
39951;DHT22;25629;51.444;-2.606;2023-02-13T00:12:24;9.00;1.00
39951;DHT22;25629;51.444;-2.606;2023-02-13T00:14:49;9.00;1.00
39951;DHT22;25629;51.444;-2.606;2023-02-13T00:17:15;8.90;1.00
39951;DHT22;25629;51.444;-2.606;2023-02-13T00:19:41;9.00;1.00
39951;DHT22;25629;51.444;-2.606;2023-02-13T00:22:07;9.00;1.00
39951;DHT22;25629;51.444;-2.606;2023-02-13T00:24:32;9.00;1.00
39951;DHT22;25629;51.444;-2.606;2023-02-13T00:26:58;9.00;1.00
39951;DHT22;25629;51.444;-2.606;2023-02-13T00:29:24;8.90;1.00
39951;DHT22;25629;51.444;-2.606;2023-02-13T00:31:50;8.90;1.00
39951;DHT22;25629;51.444;-2.606;2023-02-13T00:34:15;9.00;1.00
39951;DHT22;25629;51.444;-2.606;2023-02-13T00:36:41;9.00;1.00
39951;DHT22;25629;51.444;-2.606;2023-02-13T00:39:10;9.00;1.00
39951;DHT22;25629;51.444;-2.606;2023-02-13T00:41:36;9.10;1.00
39951;DHT22;25629;51.444;-2.606;2023-02-13T00:44:02;9.10;1.00
39951;DHT22;25629;51.444;-2.606;2023-02-13T00:46:27;9.00;1.00
39951;DHT22;25629;51.444;-2.606;2023-02-13T00:48:53;9.00;1.00
39951;DHT22;25629;51.444;-2.606;2023-02-13T00:51:19;9.00;1.00
39951;DHT22;25629;51.444;-2.606;2023-02-13T00:53:44;9.00;1.00
39951;DHT22;25629;51.444;-2.606;2023-02-13T00:56:10;9.00;1.00
39951;DHT22;25629;51.444;-2.606;2023-02-13T00:58:36;9.00;1.00
39951;DHT22;25629;51.444;-2.606;2023-02-13T01:01:02;9.10;1.00
39951;DHT22;25629;51.444;-2.606;2023-02-13T01:03:28;9.10;1.00
39951;DHT22;25629;51.444;-2.606;2023-02-13T01:05:55;9.10;1.00
39951;DHT22;25629;51.444;-2.606;2023-02-13T01:08:21;9.10;1.00
39951;DHT22;25629;51.444;-2.606;2023-02-13T01:10:48;9.10;1.00
39951;DHT22;25629;51.444;-2.606;2023-02-13T01:13:15;9.10;1.00
39951;DHT22;25629;51.444;-2.606;2023-02-13T01:15:43;9.10;1.00
39951;DHT22;25629;51.444;-2.606;2023-02-13T01:18:14;9.10;1.00
39951;DHT22;25629;51.444;-2.606;2023-02-13T01:20:41;9.10;1.00
39951;DHT22;25629;51.444;-2.606;2023-02-13T01:23:09;9.10;1.00
39951;DHT22;25629;51.444;-2.606;2023-02-13T01:25:39;9.10;1.00
39951;DHT22;25629;51.444;-2.606;2023-02-13T01:28:05;9.10;1.00
39951;DHT22;25629;51.444;-2.606;2023-02-13T01:30:31;9.00;1.00
39951;DHT22;25629;51.444;-2.606;2023-02-13T01:32:56;9.00;1.00
39951;DHT22;25629;51.444;-2.606;2023-02-13T01:35:22;9.00;1.00
39951;DHT22;25629;51.444;-2.606;2023-02-13T01:37:48;9.10;1.00
39951;DHT22;25629;51.444;-2.606;2023-02-13T01:40:14;9.10;1.00
39951;DHT22;25629;51.444;-2.606;2023-02-13T01:42:40;9.10;1.00
39951;DHT22;25629;51.444;-2.606;2023-02-13T01:45:27;9.10;1.00
39951;DHT22;25629;51.444;-2.606;2023-02-13T01:48:01;9.10;1.00
39951;DHT22;25629;51.444;-2.606;2023-02-13T01:50:36;9.10;1.00
39951;DHT22;25629;51.444;-2.606;2023-02-13T01:55:38;9.10;1.00
39951;DHT22;25629;51.444;-2.606;2023-02-13T01:58:10;9.10;1.00
39951;DHT22;25629;51.444;-2.606;2023-02-13T02:00:38;9.10;1.00
39951;DHT22;25629;51.444;-2.606;2023-02-13T02:03:25;9.00;1.00
39951;DHT22;25629;51.444;-2.606;2023-02-13T02:05:54;9.00;1.00
39951;DHT22;25629;51.444;-2.606;2023-02-13T02:08:21;9.00;1.00
39951;DHT22;25629;51.444;-2.606;2023-02-13T02:10:48;9.00;1.00
39951;DHT22;25629;51.444;-2.606;2023-02-13T02:13:16;9.10;1.00
39951;DHT22;25629;51.444;-2.606;2023-02-13T02:15:43;9.10;1.00
39951;DHT22;25629;51.444;-2.606;2023-02-13T02:18:23;9.10;1.00
39951;DHT22;25629;51.444;-2.606;2023-02-13T02:35:24;9.10;1.00
39951;DHT22;25629;51.444;-2.606;2023-02-13T02:43:58;9.00;1.00
39951;DHT22;25629;51.444;-2.606;2023-02-13T02:46:37;8.90;1.00
39951;DHT22;25629;51.444;-2.606;2023-02-13T02:49:25;8.90;1.00
39951;DHT22;25629;51.444;-2.606;2023-02-13T02:52:26;8.90;1.00
39951;DHT22;25629;51.444;-2.606;2023-02-13T02:55:00;9.00;1.00
39951;DHT22;25629;51.444;-2.606;2023-02-13T02:57:34;8.90;1.00
39951;DHT22;25629;51.444;-2.606;2023-02-13T03:00:23;8.90;1.00
39951;DHT22;25629;51.444;-2.606;2023-02-13T03:03:21;8.90;1.00
39951;DHT22;25629;51.444;-2.606;2023-02-13T03:06:16;8.90;1.00
39951;DHT22;25629;51.444;-2.606;2023-02-13T03:08:49;8.90;1.00
39951;DHT22;25629;51.444;-2.606;2023-02-13T03:11:36;8.80;1.00
39951;DHT22;25629;51.444;-2.606;2023-02-13T03:14:24;8.80;1.00
39951;DHT22;25629;51.444;-2.606;2023-02-13T03:16:51;8.80;1.00
39951;DHT22;25629;51.444;-2.606;2023-02-13T03:19:55;8.70;1.00
39951;DHT22;25629;51.444;-2.606;2023-02-13T03:25:21;8.80;1.00
39951;DHT22;25629;51.444;-2.606;2023-02-13T03:33:38;8.80;1.00
39951;DHT22;25629;51.444;-2.606;2023-02-13T03:42:01;8.80;1.00
39951;DHT22;25629;51.444;-2.606;2023-02-13T03:44:45;8.80;1.00
39951;DHT22;25629;51.444;-2.606;2023-02-13T03:47:12;8.80;1.00
39951;DHT22;25629;51.444;-2.606;2023-02-13T03:49:47;8.70;1.00
39951;DHT22;25629;51.444;-2.606;2023-02-13T03:52:52;8.60;1.00
39951;DHT22;25629;51.444;-2.606;2023-02-13T03:55:22;8.60;1.00
39951;DHT22;25629;51.444;-2.606;2023-02-13T03:58:20;8.70;1.00
39951;DHT22;25629;51.444;-2.606;2023-02-13T04:01:07;8.60;1.00
39951;DHT22;25629;51.444;-2.606;2023-02-13T04:06:10;8.70;1.00
39951;DHT22;25629;51.444;-2.606;2023-02-13T04:08:37;8.70;1.00
39951;DHT22;25629;51.444;-2.606;2023-02-13T04:11:09;8.80;1.00
39951;DHT22;25629;51.444;-2.606;2023-02-13T04:18:52;8.80;1.00
39951;DHT22;25629;51.444;-2.606;2023-02-13T04:21:19;8.80;1.00
39951;DHT22;25629;51.444;-2.606;2023-02-13T04:23:44;8.80;1.00
39951;DHT22;25629;51.444;-2.606;2023-02-13T04:26:17;8.80;1.00
39951;DHT22;25629;51.444;-2.606;2023-02-13T04:28:44;8.70;1.00
39951;DHT22;25629;51.444;-2.606;2023-02-13T04:31:09;8.70;1.00
39951;DHT22;25629;51.444;-2.606;2023-02-13T04:33:35;8.70;1.00
39951;DHT22;25629;51.444;-2.606;2023-02-13T04:36:01;8.60;1.00
39951;DHT22;25629;51.444;-2.606;2023-02-13T04:38:26;8.70;1.00
39951;DHT22;25629;51.444;-2.606;2023-02-13T04:40:52;8.60;1.00
39951;DHT22;25629;51.444;-2.606;2023-02-13T04:43:18;8.70;1.00
39951;DHT22;25629;51.444;-2.606;2023-02-13T04:45:49;8.70;1.00
39951;DHT22;25629;51.444;-2.606;2023-02-13T04:48:15;8.70;1.00
39951;DHT22;25629;51.444;-2.606;2023-02-13T04:50:41;8.60;1.00
39951;DHT22;25629;51.444;-2.606;2023-02-13T04:53:07;8.60;1.00
39951;DHT22;25629;51.444;-2.606;2023-02-13T04:55:32;8.60;1.00
39951;DHT22;25629;51.444;-2.606;2023-02-13T04:57:58;8.70;1.00
39951;DHT22;25629;51.444;-2.606;2023-02-13T05:00:26;8.70;1.00
39951;DHT22;25629;51.444;-2.606;2023-02-13T05:02:52;8.70;1.00
39951;DHT22;25629;51.444;-2.606;2023-02-13T05:05:18;8.70;1.00
39951;DHT22;25629;51.444;-2.606;2023-02-13T05:07:43;8.70;1.00
39951;DHT22;25629;51.444;-2.606;2023-02-13T05:10:10;8.70;1.00
39951;DHT22;25629;51.444;-2.606;2023-02-13T05:12:36;8.70;1.00
39951;DHT22;25629;51.444;-2.606;2023-02-13T05:15:03;8.70;1.00
39951;DHT22;25629;51.444;-2.606;2023-02-13T05:17:28;8.70;1.00
39951;DHT22;25629;51.444;-2.606;2023-02-13T05:19:54;8.70;1.00
39951;DHT22;25629;51.444;-2.606;2023-02-13T05:22:20;8.70;1.00
39951;DHT22;25629;51.444;-2.606;2023-02-13T05:25:04;8.70;1.00
39951;DHT22;25629;51.444;-2.606;2023-02-13T05:27:30;8.60;1.00
39951;DHT22;25629;51.444;-2.606;2023-02-13T05:29:56;8.60;1.00
39951;DHT22;25629;51.444;-2.606;2023-02-13T05:32:21;8.70;1.00
39951;DHT22;25629;51.444;-2.606;2023-02-13T05:34:47;8.70;1.00
39951;DHT22;25629;51.444;-2.606;2023-02-13T05:37:13;8.70;1.00
39951;DHT22;25629;51.444;-2.606;2023-02-13T05:39:38;8.70;1.00
39951;DHT22;25629;51.444;-2.606;2023-02-13T05:42:04;8.60;1.00
39951;DHT22;25629;51.444;-2.606;2023-02-13T05:44:30;8.50;1.00
39951;DHT22;25629;51.444;-2.606;2023-02-13T05:46:56;8.50;1.00
39951;DHT22;25629;51.444;-2.606;2023-02-13T05:49:22;8.50;1.00
39951;DHT22;25629;51.444;-2.606;2023-02-13T05:51:48;8.60;1.00
39951;DHT22;25629;51.444;-2.606;2023-02-13T05:54:14;8.60;1.00
39951;DHT22;25629;51.444;-2.606;2023-02-13T05:56:40;8.60;1.00
39951;DHT22;25629;51.444;-2.606;2023-02-13T05:59:06;8.50;1.00
39951;DHT22;25629;51.444;-2.606;2023-02-13T06:01:32;8.50;1.00
39951;DHT22;25629;51.444;-2.606;2023-02-13T06:03:57;8.50;1.00
39951;DHT22;25629;51.444;-2.606;2023-02-13T06:06:23;8.50;1.00
39951;DHT22;25629;51.444;-2.606;2023-02-13T06:08:50;8.50;1.00
39951;DHT22;25629;51.444;-2.606;2023-02-13T06:11:16;8.60;1.00
39951;DHT22;25629;51.444;-2.606;2023-02-13T06:13:42;8.50;1.00
39951;DHT22;25629;51.444;-2.606;2023-02-13T06:16:09;8.40;1.00
39951;DHT22;25629;51.444;-2.606;2023-02-13T06:18:35;8.40;1.00
39951;DHT22;25629;51.444;-2.606;2023-02-13T06:21:01;8.40;1.00
39951;DHT22;25629;51.444;-2.606;2023-02-13T06:23:27;8.40;1.00
39951;DHT22;25629;51.444;-2.606;2023-02-13T06:25:53;8.40;1.00
39951;DHT22;25629;51.444;-2.606;2023-02-13T06:28:19;8.40;1.00
39951;DHT22;25629;51.444;-2.606;2023-02-13T06:30:45;8.40;1.00
39951;DHT22;25629;51.444;-2.606;2023-02-13T06:33:10;8.30;1.00
39951;DHT22;25629;51.444;-2.606;2023-02-13T06:35:36;8.30;1.00
39951;DHT22;25629;51.444;-2.606;2023-02-13T06:38:02;8.30;1.00
39951;DHT22;25629;51.444;-2.606;2023-02-13T06:40:28;8.30;1.00
39951;DHT22;25629;51.444;-2.606;2023-02-13T06:42:53;8.30;1.00
39951;DHT22;25629;51.444;-2.606;2023-02-13T06:45:19;8.20;1.00
39951;DHT22;25629;51.444;-2.606;2023-02-13T06:47:46;8.20;1.00
39951;DHT22;25629;51.444;-2.606;2023-02-13T06:50:13;8.10;1.00
39951;DHT22;25629;51.444;-2.606;2023-02-13T06:52:47;8.10;1.00
39951;DHT22;25629;51.444;-2.606;2023-02-13T06:55:14;8.10;1.00
39951;DHT22;25629;51.444;-2.606;2023-02-13T06:57:41;8.10;1.00
39951;DHT22;25629;51.444;-2.606;2023-02-13T07:00:08;8.10;1.00
39951;DHT22;25629;51.444;-2.606;2023-02-13T07:02:41;8.10;1.00
39951;DHT22;25629;51.444;-2.606;2023-02-13T07:05:07;8.10;1.00
39951;DHT22;25629;51.444;-2.606;2023-02-13T07:07:34;8.10;1.00
39951;DHT22;25629;51.444;-2.606;2023-02-13T07:10:00;8.10;1.00
39951;DHT22;25629;51.444;-2.606;2023-02-13T07:12:27;8.10;1.00
39951;DHT22;25629;51.444;-2.606;2023-02-13T07:14:52;8.10;1.00
39951;DHT22;25629;51.444;-2.606;2023-02-13T07:17:18;8.00;1.00
39951;DHT22;25629;51.444;-2.606;2023-02-13T07:19:44;8.00;1.00
39951;DHT22;25629;51.444;-2.606;2023-02-13T07:22:09;8.00;1.00
39951;DHT22;25629;51.444;-2.606;2023-02-13T07:24:35;8.00;1.00
39951;DHT22;25629;51.444;-2.606;2023-02-13T07:27:03;7.90;1.00
39951;DHT22;25629;51.444;-2.606;2023-02-13T07:29:29;7.90;1.00
39951;DHT22;25629;51.444;-2.606;2023-02-13T07:31:55;7.90;1.00
39951;DHT22;25629;51.444;-2.606;2023-02-13T07:34:20;7.80;1.00
39951;DHT22;25629;51.444;-2.606;2023-02-13T07:36:46;7.80;1.00
39951;DHT22;25629;51.444;-2.606;2023-02-13T07:39:12;7.90;1.00
39951;DHT22;25629;51.444;-2.606;2023-02-13T07:41:38;7.90;1.00
39951;DHT22;25629;51.444;-2.606;2023-02-13T07:44:04;7.80;1.00
39951;DHT22;25629;51.444;-2.606;2023-02-13T07:46:30;7.70;1.00
39951;DHT22;25629;51.444;-2.606;2023-02-13T07:48:55;7.80;1.00
39951;DHT22;25629;51.444;-2.606;2023-02-13T07:51:21;7.80;1.00
39951;DHT22;25629;51.444;-2.606;2023-02-13T07:53:51;7.80;1.00
39951;DHT22;25629;51.444;-2.606;2023-02-13T07:56:17;7.80;1.00
39951;DHT22;25629;51.444;-2.606;2023-02-13T07:58:43;7.80;1.00
39951;DHT22;25629;51.444;-2.606;2023-02-13T08:01:11;7.80;1.00
39951;DHT22;25629;51.444;-2.606;2023-02-13T08:03:38;7.80;1.00
39951;DHT22;25629;51.444;-2.606;2023-02-13T08:06:05;7.90;1.00
39951;DHT22;25629;51.444;-2.606;2023-02-13T08:08:31;7.90;1.00
39951;DHT22;25629;51.444;-2.606;2023-02-13T08:11:01;8.00;1.00
39951;DHT22;25629;51.444;-2.606;2023-02-13T08:13:46;7.90;1.00
39951;DHT22;25629;51.444;-2.606;2023-02-13T08:16:12;8.00;1.00
39951;DHT22;25629;51.444;-2.606;2023-02-13T08:18:37;8.00;1.00
39951;DHT22;25629;51.444;-2.606;2023-02-13T08:21:03;8.10;1.00
39951;DHT22;25629;51.444;-2.606;2023-02-13T08:23:29;8.20;1.00
39951;DHT22;25629;51.444;-2.606;2023-02-13T08:25:58;8.20;1.00
39951;DHT22;25629;51.444;-2.606;2023-02-13T08:28:25;8.30;1.00
39951;DHT22;25629;51.444;-2.606;2023-02-13T08:30:50;8.40;1.00
39951;DHT22;25629;51.444;-2.606;2023-02-13T08:33:16;8.50;1.00
39951;DHT22;25629;51.444;-2.606;2023-02-13T08:35:42;8.50;1.00
39951;DHT22;25629;51.444;-2.606;2023-02-13T08:38:08;8.60;1.00
39951;DHT22;25629;51.444;-2.606;2023-02-13T08:40:34;8.60;1.00
39951;DHT22;25629;51.444;-2.606;2023-02-13T08:43:01;8.70;1.00
39951;DHT22;25629;51.444;-2.606;2023-02-13T08:45:27;8.70;1.00
39951;DHT22;25629;51.444;-2.606;2023-02-13T08:47:55;8.70;1.00
39951;DHT22;25629;51.444;-2.606;2023-02-13T08:50:22;8.70;1.00
39951;DHT22;25629;51.444;-2.606;2023-02-13T08:52:47;8.70;1.00
39951;DHT22;25629;51.444;-2.606;2023-02-13T08:55:13;8.70;1.00
39951;DHT22;25629;51.444;-2.606;2023-02-13T08:57:39;8.70;99.90
39951;DHT22;25629;51.444;-2.606;2023-02-13T09:00:05;8.70;1.00
39951;DHT22;25629;51.444;-2.606;2023-02-13T09:02:30;8.70;1.00
39951;DHT22;25629;51.444;-2.606;2023-02-13T09:04:56;8.70;1.00
39951;DHT22;25629;51.444;-2.606;2023-02-13T09:07:23;8.60;1.00
39951;DHT22;25629;51.444;-2.606;2023-02-13T09:09:49;8.70;1.00
39951;DHT22;25629;51.444;-2.606;2023-02-13T09:12:15;8.70;1.00
39951;DHT22;25629;51.444;-2.606;2023-02-13T09:14:41;8.70;1.00
39951;DHT22;25629;51.444;-2.606;2023-02-13T09:17:07;8.80;1.00
39951;DHT22;25629;51.444;-2.606;2023-02-13T09:19:32;8.90;1.00
39951;DHT22;25629;51.444;-2.606;2023-02-13T09:21:58;8.90;1.00
39951;DHT22;25629;51.444;-2.606;2023-02-13T09:24:24;9.00;1.00
39951;DHT22;25629;51.444;-2.606;2023-02-13T09:26:50;8.90;99.90
39951;DHT22;25629;51.444;-2.606;2023-02-13T09:29:16;8.70;99.90
39951;DHT22;25629;51.444;-2.606;2023-02-13T09:31:41;8.70;99.90
39951;DHT22;25629;51.444;-2.606;2023-02-13T09:34:07;8.70;99.90
39951;DHT22;25629;51.444;-2.606;2023-02-13T09:36:33;8.60;99.90
39951;DHT22;25629;51.444;-2.606;2023-02-13T09:39:00;8.50;1.00
39951;DHT22;25629;51.444;-2.606;2023-02-13T09:41:38;8.60;1.00
39951;DHT22;25629;51.444;-2.606;2023-02-13T09:44:19;8.60;1.00
39951;DHT22;25629;51.444;-2.606;2023-02-13T09:47:01;8.70;1.00
39951;DHT22;25629;51.444;-2.606;2023-02-13T09:49:31;8.70;99.90
39951;DHT22;25629;51.444;-2.606;2023-02-13T09:51:58;8.80;99.90
39951;DHT22;25629;51.444;-2.606;2023-02-13T09:54:24;8.90;99.90
39951;DHT22;25629;51.444;-2.606;2023-02-13T09:57:27;9.10;99.90
39951;DHT22;25629;51.444;-2.606;2023-02-13T10:00:06;9.20;99.90
39951;DHT22;25629;51.444;-2.606;2023-02-13T10:05:50;9.80;99.90
39951;DHT22;25629;51.444;-2.606;2023-02-13T10:11:23;9.70;35.70
39951;DHT22;25629;51.444;-2.606;2023-02-13T10:19:10;9.90;1.00
39951;DHT22;25629;51.444;-2.606;2023-02-13T10:21:40;9.90;99.90
39951;DHT22;25629;51.444;-2.606;2023-02-13T10:24:33;9.80;56.50
39951;DHT22;25629;51.444;-2.606;2023-02-13T10:27:09;10.10;99.90
39951;DHT22;25629;51.444;-2.606;2023-02-13T10:29:52;10.20;1.00
39951;DHT22;25629;51.444;-2.606;2023-02-13T10:35:34;9.90;99.90
39951;DHT22;25629;51.444;-2.606;2023-02-13T10:38:11;9.90;1.00
39951;DHT22;25629;51.444;-2.606;2023-02-13T10:40:38;10.00;1.00
39951;DHT22;25629;51.444;-2.606;2023-02-13T10:43:07;10.50;51.10
39951;DHT22;25629;51.444;-2.606;2023-02-13T10:46:54;10.50;1.00
39951;DHT22;25629;51.444;-2.606;2023-02-13T10:51:39;11.00;99.90
39951;DHT22;25629;51.444;-2.606;2023-02-13T10:57:13;11.60;99.90
39951;DHT22;25629;51.444;-2.606;2023-02-13T10:59:48;12.00;1.00
39951;DHT22;25629;51.444;-2.606;2023-02-13T11:02:24;12.40;1.00
39951;DHT22;25629;51.444;-2.606;2023-02-13T11:05:04;12.70;99.90
39951;DHT22;25629;51.444;-2.606;2023-02-13T11:07:33;12.70;65.70
39951;DHT22;25629;51.444;-2.606;2023-02-13T11:10:05;12.50;34.40
39951;DHT22;25629;51.444;-2.606;2023-02-13T11:12:37;12.30;52.00
39951;DHT22;25629;51.444;-2.606;2023-02-13T11:15:05;12.40;99.90
39951;DHT22;25629;51.444;-2.606;2023-02-13T11:17:38;12.50;92.80
39951;DHT22;25629;51.444;-2.606;2023-02-13T11:22:52;12.80;1.00
39951;DHT22;25629;51.444;-2.606;2023-02-13T11:25:19;12.90;1.00
39951;DHT22;25629;51.444;-2.606;2023-02-13T11:27:47;13.20;1.00
39951;DHT22;25629;51.444;-2.606;2023-02-13T11:33:04;12.90;1.00
39951;DHT22;25629;51.444;-2.606;2023-02-13T11:35:35;13.00;1.00
39951;DHT22;25629;51.444;-2.606;2023-02-13T11:40:46;13.10;99.90
39951;DHT22;25629;51.444;-2.606;2023-02-13T11:43:27;13.10;1.00
39951;DHT22;25629;51.444;-2.606;2023-02-13T11:46:20;13.30;1.00
39951;DHT22;25629;51.444;-2.606;2023-02-13T11:49:01;13.70;99.90
39951;DHT22;25629;51.444;-2.606;2023-02-13T11:51:54;13.70;99.90
39951;DHT22;25629;51.444;-2.606;2023-02-13T11:54:31;13.70;99.90
39951;DHT22;25629;51.444;-2.606;2023-02-13T11:57:02;13.70;99.90
39951;DHT22;25629;51.444;-2.606;2023-02-13T11:59:32;13.40;99.90
39951;DHT22;25629;51.444;-2.606;2023-02-13T12:02:13;13.20;99.90
39951;DHT22;25629;51.444;-2.606;2023-02-13T12:04:40;13.00;99.90
39951;DHT22;25629;51.444;-2.606;2023-02-13T12:07:26;13.00;99.90
39951;DHT22;25629;51.444;-2.606;2023-02-13T12:10:15;13.30;99.90
39951;DHT22;25629;51.444;-2.606;2023-02-13T12:12:58;13.40;99.90
39951;DHT22;25629;51.444;-2.606;2023-02-13T12:15:30;13.30;99.90
39951;DHT22;25629;51.444;-2.606;2023-02-13T12:23:38;13.80;99.90
39951;DHT22;25629;51.444;-2.606;2023-02-13T12:36:56;14.30;99.90
39951;DHT22;25629;51.444;-2.606;2023-02-13T12:39:33;14.40;99.90
39951;DHT22;25629;51.444;-2.606;2023-02-13T12:47:41;15.00;99.90
39951;DHT22;25629;51.444;-2.606;2023-02-13T12:58:14;16.00;99.90
39951;DHT22;25629;51.444;-2.606;2023-02-13T13:20:38;17.80;1.00
39951;DHT22;25629;51.444;-2.606;2023-02-13T13:28:27;17.40;1.00
39951;DHT22;25629;51.444;-2.606;2023-02-13T13:30:55;17.60;1.00
39951;DHT22;25629;51.444;-2.606;2023-02-13T13:33:24;17.80;1.00
39951;DHT22;25629;51.444;-2.606;2023-02-13T13:49:57;19.40;1.00
39951;DHT22;25629;51.444;-2.606;2023-02-13T13:52:30;19.60;1.00
39951;DHT22;25629;51.444;-2.606;2023-02-13T13:54:59;19.60;1.00
39951;DHT22;25629;51.444;-2.606;2023-02-13T14:00:28;20.60;1.00
39951;DHT22;25629;51.444;-2.606;2023-02-13T14:07:53;19.70;1.00
39951;DHT22;25629;51.444;-2.606;2023-02-13T14:31:33;19.50;1.00
39951;DHT22;25629;51.444;-2.606;2023-02-13T14:36:42;19.30;1.00
39951;DHT22;25629;51.444;-2.606;2023-02-13T14:39:29;18.40;1.00
39951;DHT22;25629;51.444;-2.606;2023-02-13T14:41:58;17.90;1.00
39951;DHT22;25629;51.444;-2.606;2023-02-13T14:44:48;17.70;1.00
39951;DHT22;25629;51.444;-2.606;2023-02-13T14:49:44;17.10;1.00
39951;DHT22;25629;51.444;-2.606;2023-02-13T14:52:24;17.50;1.00
39951;DHT22;25629;51.444;-2.606;2023-02-13T14:55:03;17.90;1.00
39951;DHT22;25629;51.444;-2.606;2023-02-13T14:57:33;18.40;1.00
39951;DHT22;25629;51.444;-2.606;2023-02-13T15:00:49;18.90;1.00
39951;DHT22;25629;51.444;-2.606;2023-02-13T15:02:58;19.30;1.00
39951;DHT22;25629;51.444;-2.606;2023-02-13T15:05:31;19.40;1.00
39951;DHT22;25629;51.444;-2.606;2023-02-13T15:08:05;19.20;1.00
39951;DHT22;25629;51.444;-2.606;2023-02-13T15:12:59;19.40;1.00
39951;DHT22;25629;51.444;-2.606;2023-02-13T15:15:44;19.40;1.00
39951;DHT22;25629;51.444;-2.606;2023-02-13T15:18:26;19.40;1.00
39951;DHT22;25629;51.444;-2.606;2023-02-13T15:20:57;19.40;1.00
39951;DHT22;25629;51.444;-2.606;2023-02-13T15:23:28;19.40;1.00
39951;DHT22;25629;51.444;-2.606;2023-02-13T15:26:06;19.00;1.00
39951;DHT22;25629;51.444;-2.606;2023-02-13T15:28:34;18.20;1.00
39951;DHT22;25629;51.444;-2.606;2023-02-13T15:33:27;16.00;1.00
39951;DHT22;25629;51.444;-2.606;2023-02-13T15:35:58;15.30;1.00
39951;DHT22;25629;51.444;-2.606;2023-02-13T15:38:35;14.80;1.00
39951;DHT22;25629;51.444;-2.606;2023-02-13T15:41:11;14.50;1.00
39951;DHT22;25629;51.444;-2.606;2023-02-13T15:43:49;14.30;1.00
39951;DHT22;25629;51.444;-2.606;2023-02-13T15:48:46;14.00;1.00
39951;DHT22;25629;51.444;-2.606;2023-02-13T15:51:20;13.90;1.00
39951;DHT22;25629;51.444;-2.606;2023-02-13T15:53:57;13.80;1.00
39951;DHT22;25629;51.444;-2.606;2023-02-13T15:56:26;13.60;1.00
39951;DHT22;25629;51.444;-2.606;2023-02-13T15:58:53;13.40;1.00
39951;DHT22;25629;51.444;-2.606;2023-02-13T16:01:20;13.30;1.00
39951;DHT22;25629;51.444;-2.606;2023-02-13T16:03:52;13.30;1.00
39951;DHT22;25629;51.444;-2.606;2023-02-13T16:06:19;13.20;1.00
39951;DHT22;25629;51.444;-2.606;2023-02-13T16:08:54;13.10;1.00
39951;DHT22;25629;51.444;-2.606;2023-02-13T16:14:24;13.00;1.00
39951;DHT22;25629;51.444;-2.606;2023-02-13T16:17:34;13.00;1.00
39951;DHT22;25629;51.444;-2.606;2023-02-13T16:22:54;12.80;1.00
39951;DHT22;25629;51.444;-2.606;2023-02-13T16:25:33;12.80;1.00
39951;DHT22;25629;51.444;-2.606;2023-02-13T16:28:17;12.70;1.00
39951;DHT22;25629;51.444;-2.606;2023-02-13T16:30:58;12.70;1.00
39951;DHT22;25629;51.444;-2.606;2023-02-13T16:35:57;12.60;1.00
39951;DHT22;25629;51.444;-2.606;2023-02-13T16:38:41;12.50;1.00
39951;DHT22;25629;51.444;-2.606;2023-02-13T16:43:50;12.30;1.00
39951;DHT22;25629;51.444;-2.606;2023-02-13T16:46:34;12.20;1.00
39951;DHT22;25629;51.444;-2.606;2023-02-13T16:54:34;12.10;1.00
39951;DHT22;25629;51.444;-2.606;2023-02-13T17:02:28;11.90;57.90
39951;DHT22;25629;51.444;-2.606;2023-02-13T17:07:45;11.80;99.90
39951;DHT22;25629;51.444;-2.606;2023-02-13T17:10:32;11.70;99.90
39951;DHT22;25629;51.444;-2.606;2023-02-13T17:15:44;11.50;99.90
39951;DHT22;25629;51.444;-2.606;2023-02-13T17:18:10;11.50;99.90
39951;DHT22;25629;51.444;-2.606;2023-02-13T17:20:37;11.40;99.90
39951;DHT22;25629;51.444;-2.606;2023-02-13T17:23:06;11.30;99.90
39951;DHT22;25629;51.444;-2.606;2023-02-13T17:25:37;11.20;99.90
39951;DHT22;25629;51.444;-2.606;2023-02-13T17:28:13;11.10;99.90
39951;DHT22;25629;51.444;-2.606;2023-02-13T17:30:39;11.00;1.00
39951;DHT22;25629;51.444;-2.606;2023-02-13T17:33:10;11.00;1.00
39951;DHT22;25629;51.444;-2.606;2023-02-13T17:35:36;10.90;87.10
39951;DHT22;25629;51.444;-2.606;2023-02-13T17:38:02;10.80;99.90
39951;DHT22;25629;51.444;-2.606;2023-02-13T17:40:28;10.80;99.90
39951;DHT22;25629;51.444;-2.606;2023-02-13T17:42:57;10.70;99.90
39951;DHT22;25629;51.444;-2.606;2023-02-13T17:45:26;10.60;1.00
39951;DHT22;25629;51.444;-2.606;2023-02-13T17:47:52;10.50;1.00
39951;DHT22;25629;51.444;-2.606;2023-02-13T17:50:18;10.50;31.00
39951;DHT22;25629;51.444;-2.606;2023-02-13T17:52:45;10.40;1.00
39951;DHT22;25629;51.444;-2.606;2023-02-13T17:55:23;10.30;99.90
39951;DHT22;25629;51.444;-2.606;2023-02-13T17:57:50;10.30;99.90
39951;DHT22;25629;51.444;-2.606;2023-02-13T18:00:18;10.30;99.90
39951;DHT22;25629;51.444;-2.606;2023-02-13T18:02:45;10.20;1.00
39951;DHT22;25629;51.444;-2.606;2023-02-13T18:05:12;10.00;99.90
39951;DHT22;25629;51.444;-2.606;2023-02-13T18:07:38;10.00;99.90
39951;DHT22;25629;51.444;-2.606;2023-02-13T18:10:20;9.90;99.90
39951;DHT22;25629;51.444;-2.606;2023-02-13T18:12:47;9.70;99.90
39951;DHT22;25629;51.444;-2.606;2023-02-13T18:15:13;9.60;1.00
39951;DHT22;25629;51.444;-2.606;2023-02-13T18:17:39;9.60;1.00
39951;DHT22;25629;51.444;-2.606;2023-02-13T18:20:07;9.50;1.00
39951;DHT22;25629;51.444;-2.606;2023-02-13T18:22:33;9.50;99.90
39951;DHT22;25629;51.444;-2.606;2023-02-13T18:25:00;9.50;1.00
39951;DHT22;25629;51.444;-2.606;2023-02-13T18:27:26;9.50;1.00
39951;DHT22;25629;51.444;-2.606;2023-02-13T18:29:53;9.50;99.90
39951;DHT22;25629;51.444;-2.606;2023-02-13T18:32:19;9.50;1.00
39951;DHT22;25629;51.444;-2.606;2023-02-13T18:34:45;9.50;99.90
39951;DHT22;25629;51.444;-2.606;2023-02-13T18:37:12;9.50;1.00
39951;DHT22;25629;51.444;-2.606;2023-02-13T18:39:38;9.40;1.00
39951;DHT22;25629;51.444;-2.606;2023-02-13T18:42:04;9.40;99.90
39951;DHT22;25629;51.444;-2.606;2023-02-13T18:44:30;9.40;1.00
39951;DHT22;25629;51.444;-2.606;2023-02-13T18:46:56;9.30;99.90
39951;DHT22;25629;51.444;-2.606;2023-02-13T18:49:22;9.20;99.90
39951;DHT22;25629;51.444;-2.606;2023-02-13T18:51:48;9.30;99.90
39951;DHT22;25629;51.444;-2.606;2023-02-13T18:54:14;9.20;99.90
39951;DHT22;25629;51.444;-2.606;2023-02-13T18:56:40;9.10;99.90
39951;DHT22;25629;51.444;-2.606;2023-02-13T18:59:06;9.10;99.90
39951;DHT22;25629;51.444;-2.606;2023-02-13T19:01:32;9.10;99.90
39951;DHT22;25629;51.444;-2.606;2023-02-13T19:04:00;9.10;99.90
39951;DHT22;25629;51.444;-2.606;2023-02-13T19:06:27;9.10;99.90
39951;DHT22;25629;51.444;-2.606;2023-02-13T19:08:54;9.00;99.90
39951;DHT22;25629;51.444;-2.606;2023-02-13T19:11:20;9.00;1.00
39951;DHT22;25629;51.444;-2.606;2023-02-13T19:13:56;8.90;1.00
39951;DHT22;25629;51.444;-2.606;2023-02-13T19:16:23;8.90;1.00
39951;DHT22;25629;51.444;-2.606;2023-02-13T19:18:50;8.90;1.00
39951;DHT22;25629;51.444;-2.606;2023-02-13T19:21:24;8.90;1.00
39951;DHT22;25629;51.444;-2.606;2023-02-13T19:23:50;8.80;1.00
39951;DHT22;25629;51.444;-2.606;2023-02-13T19:26:19;8.80;1.00
39951;DHT22;25629;51.444;-2.606;2023-02-13T19:28:45;8.80;1.00